Time;durP1;ratioP1;P1;durP2;ratioP2;P2;SDS_P1;SDS_P2;PMS_P1;PMS_P2;Temp;Humidity;BMP_temperature;BMP_pressure;BME280_temperature;BME280_humidity;BME280_pressure;Samples;Min_cycle;Max_cycle;Signal;HPM_P1;HPM_P2
2022/03/19 00:00:08;;;;;;;15.50;8.48;;;;;;;8.16;45.47;102864.25;5093438;28;20080;-72
2022/03/19 00:02:43;;;;;;;15.90;8.88;;;;;;;8.13;46.74;102875.56;5093213;28;20048;-72
2022/03/19 00:05:11;;;;;;;17.45;9.15;;;;;;;8.15;45.91;102874.31;5093565;28;20048;-72
2022/03/19 00:07:42;;;;;;;16.58;9.27;;;;;;;8.08;46.47;102870.72;5093593;28;20538;-72
2022/03/19 00:10:10;;;;;;;14.10;8.95;;;;;;;8.03;46.48;102863.16;5094182;28;20040;-72
2022/03/19 00:12:39;;;;;;;18.40;9.13;;;;;;;8.00;47.24;102868.19;5092816;28;20048;-72
2022/03/19 00:15:09;;;;;;;14.82;8.65;;;;;;;7.99;46.97;102866.50;5093107;28;20051;-72
2022/03/19 00:17:38;;;;;;;14.98;8.43;;;;;;;8.00;46.51;102869.03;5094197;28;20052;-72
2022/03/19 00:20:06;;;;;;;16.60;9.93;;;;;;;7.98;46.51;102875.72;5093778;28;20391;-73
2022/03/19 00:22:35;;;;;;;17.75;9.60;;;;;;;7.93;46.70;102870.91;5093398;28;20053;-72
2022/03/19 00:25:03;;;;;;;14.52;8.68;;;;;;;7.88;47.18;102866.03;5093097;28;20048;-72
2022/03/19 00:27:31;;;;;;;15.07;9.52;;;;;;;7.88;46.95;102871.50;5093913;28;20461;-72
2022/03/19 00:29:59;;;;;;;17.00;9.35;;;;;;;7.85;47.39;102865.63;5093906;28;20054;-73
2022/03/19 00:32:27;;;;;;;13.85;8.70;;;;;;;7.77;47.59;102858.50;5092968;28;20044;-73
2022/03/19 00:34:55;;;;;;;21.35;9.18;;;;;;;7.79;47.48;102867.28;5093313;28;20490;-73
2022/03/19 00:37:23;;;;;;;17.85;9.20;;;;;;;7.75;47.47;102855.09;5093000;28;20052;-73
2022/03/19 00:39:51;;;;;;;13.98;8.77;;;;;;;7.85;49.07;102865.63;5093164;28;20044;-73
2022/03/19 00:42:19;;;;;;;14.82;9.20;;;;;;;7.76;48.21;102862.25;5106413;28;20044;-72
2022/03/19 00:44:47;;;;;;;17.77;9.05;;;;;;;7.75;48.38;102860.56;5092641;28;20052;-72
2022/03/19 00:47:15;;;;;;;14.05;9.27;;;;;;;7.71;48.33;102865.59;5092598;28;20055;-72
2022/03/19 00:49:43;;;;;;;17.05;8.48;;;;;;;7.66;48.84;102859.91;5092704;28;20070;-73
2022/03/19 00:52:11;;;;;;;11.15;7.90;;;;;;;7.62;49.20;102866.81;5092371;28;20047;-72
2022/03/19 00:54:39;;;;;;;20.25;8.65;;;;;;;7.61;49.07;102854.22;5092331;28;20064;-72
2022/03/19 00:57:07;;;;;;;17.90;9.07;;;;;;;7.59;48.84;102849.00;5092503;28;20044;-72
2022/03/19 00:59:35;;;;;;;16.10;9.70;;;;;;;7.53;49.03;102853.34;5093265;28;20040;-72
2022/03/19 01:02:03;;;;;;;20.63;9.40;;;;;;;7.50;49.56;102853.78;5092483;28;20386;-72
2022/03/19 01:04:31;;;;;;;18.13;9.27;;;;;;;7.46;50.04;102852.50;5092366;28;20075;-72
2022/03/19 01:06:59;;;;;;;14.48;8.95;;;;;;;7.42;49.85;102851.22;5093124;28;20059;-72
2022/03/19 01:09:27;;;;;;;16.42;9.60;;;;;;;7.36;50.02;102849.28;5093026;28;20047;-72
2022/03/19 01:11:55;;;;;;;15.90;9.55;;;;;;;7.36;49.84;102846.56;5092269;28;20064;-73
2022/03/19 01:14:23;;;;;;;16.80;9.50;;;;;;;7.37;49.75;102856.41;5092098;28;20070;-72
2022/03/19 01:16:51;;;;;;;16.65;9.68;;;;;;;7.25;50.67;102846.09;5092982;28;20024;-72
2022/03/19 01:19:52;;;;;;;17.05;9.52;;;;;;;7.17;50.82;102845.41;5091931;28;20047;-72
2022/03/19 01:22:07;;;;;;;19.48;9.82;;;;;;;7.19;50.60;102837.91;5079719;28;20059;-73
2022/03/19 01:24:34;;;;;;;19.52;10.43;;;;;;;7.13;50.63;102843.13;5091942;28;20040;-73
2022/03/19 01:27:03;;;;;;;21.05;9.48;;;;;;;7.19;50.55;102840.63;5092645;28;20402;-73
2022/03/19 01:29:31;;;;;;;14.90;9.13;;;;;;;7.16;50.73;102838.28;5090969;28;20491;-72
2022/03/19 01:31:59;;;;;;;17.20;9.52;;;;;;;7.14;50.53;102841.25;5092682;28;20040;-72
2022/03/19 01:34:26;;;;;;;17.65;10.77;;;;;;;7.15;50.23;102837.47;5091553;28;20051;-72
2022/03/19 01:36:55;;;;;;;13.27;8.52;;;;;;;7.13;50.65;102836.81;5091865;28;20055;-72
2022/03/19 01:39:23;;;;;;;16.23;9.40;;;;;;;7.13;50.48;102837.66;5092553;28;20040;-73
2022/03/19 01:41:51;;;;;;;19.08;9.77;;;;;;;7.13;50.91;102837.66;5104306;28;20056;-72
2022/03/19 01:44:20;;;;;;;16.38;9.68;;;;;;;7.04;51.12;102827.13;5091957;28;20395;-73
2022/03/19 01:46:54;;;;;;;16.98;9.65;;;;;;;7.10;51.17;102829.06;5092220;28;20040;-72
2022/03/19 01:49:22;;;;;;;17.88;9.48;;;;;;;7.07;50.94;102826.72;5091183;28;20044;-72
2022/03/19 01:51:51;;;;;;;17.33;9.50;;;;;;;7.11;50.98;102828.00;5073620;28;20055;-72
2022/03/19 01:54:25;;;;;;;19.20;9.52;;;;;;;7.09;51.21;102825.47;5092013;28;20047;-72
2022/03/19 01:56:54;;;;;;;16.00;9.27;;;;;;;7.03;50.74;102814.56;5092367;28;20058;-73
2022/03/19 01:59:25;;;;;;;19.08;10.27;;;;;;;7.06;51.60;102811.44;5060341;28;20052;-73
2022/03/19 02:01:55;;;;;;;17.23;9.60;;;;;;;6.97;50.81;102810.75;5091624;28;20410;-73
2022/03/19 02:04:23;;;;;;;14.90;9.43;;;;;;;7.03;50.33;102815.41;5091462;28;20044;-73
2022/03/19 02:06:52;;;;;;;15.25;9.82;;;;;;;7.08;50.37;102814.78;5091676;28;20047;-73
2022/03/19 02:09:20;;;;;;;16.08;9.35;;;;;;;7.01;50.37;102820.22;5091050;28;20048;-73
2022/03/19 02:11:48;;;;;;;18.63;10.57;;;;;;;7.02;50.42;102807.41;5091688;28;20402;-73
2022/03/19 02:14:16;;;;;;;20.10;9.93;;;;;;;7.01;50.65;102808.47;5091528;28;20048;-73
2022/03/19 02:16:44;;;;;;;20.92;10.40;;;;;;;6.97;50.52;102810.75;5091093;28;20044;-73
2022/03/19 02:19:12;;;;;;;19.27;10.68;;;;;;;6.95;50.14;102807.41;5091491;28;20048;-73
2022/03/19 02:21:46;;;;;;;17.17;10.10;;;;;;;6.99;50.02;102819.56;5091268;28;20044;-73
2022/03/19 02:27:02;;;;;;;18.95;10.38;;;;;;;6.94;49.63;102813.91;5091043;28;20044;-73
2022/03/19 02:29:31;;;;;;;17.77;10.30;;;;;;;6.88;50.17;102810.06;5091853;28;20047;-73
2022/03/19 02:32:03;;;;;;;18.15;10.02;;;;;;;6.82;50.15;102803.56;5091627;28;20051;-73
2022/03/19 02:34:34;;;;;;;14.82;9.60;;;;;;;6.75;50.86;102804.56;5091811;28;20036;-72
2022/03/19 02:37:02;;;;;;;19.00;10.57;;;;;;;6.79;50.46;102803.13;5091774;28;20056;-73
2022/03/19 02:39:36;;;;;;;20.02;10.38;;;;;;;6.70;50.53;102803.25;5090661;28;20063;-72
2022/03/19 02:42:06;;;;;;;18.88;10.20;;;;;;;6.72;50.83;102803.91;5096204;28;20044;-73
2022/03/19 02:44:35;;;;;;;18.77;10.40;;;;;;;6.59;50.68;102804.66;5090890;28;20048;-73
2022/03/19 02:47:06;;;;;;;16.13;9.90;;;;;;;6.50;52.24;102799.56;5091251;28;20055;-73
2022/03/19 02:49:35;;;;;;;17.75;10.50;;;;;;;6.55;50.85;102802.53;5091072;28;20044;-73
2022/03/19 02:52:04;;;;;;;18.60;10.98;;;;;;;6.58;50.90;102802.13;5090845;28;20505;-73
2022/03/19 02:54:32;;;;;;;17.42;10.20;;;;;;;6.55;50.86;102805.25;5073272;28;20052;-73
2022/03/19 02:57:00;;;;;;;19.25;11.27;;;;;;;6.44;51.48;102806.63;5091719;28;20046;-73
2022/03/19 02:59:32;;;;;;;18.73;10.25;;;;;;;6.39;52.21;102803.66;5090629;28;20048;-72
2022/03/19 03:02:03;;;;;;;20.20;10.95;;;;;;;6.27;52.37;102800.63;5090945;28;20510;-73
2022/03/19 03:04:32;;;;;;;21.17;11.63;;;;;;;6.13;52.54;102802.38;5091441;28;20052;-73
2022/03/19 03:07:02;;;;;;;19.85;10.95;;;;;;;6.15;52.70;102803.03;5091472;28;20048;-73
2022/03/19 03:09:32;;;;;;;20.83;10.93;;;;;;;6.12;52.72;102806.16;5090639;28;20051;-73
2022/03/19 03:12:01;;;;;;;20.23;11.10;;;;;;;6.06;52.71;102799.59;5090972;28;20407;-73
2022/03/19 03:14:30;;;;;;;24.13;11.00;;;;;;;6.00;53.01;102805.78;5073630;28;20052;-73
2022/03/19 03:16:59;;;;;;;19.58;11.32;;;;;;;5.98;53.30;102807.84;5092291;28;20394;-73
2022/03/19 03:19:27;;;;;;;19.15;10.30;;;;;;;6.04;53.25;102807.97;5095283;28;20048;-73
2022/03/19 03:21:55;;;;;;;20.45;10.90;;;;;;;6.02;53.11;102807.31;5094248;28;20048;-73
2022/03/19 03:24:24;;;;;;;17.27;10.77;;;;;;;5.94;53.45;102814.72;5095255;28;20380;-73
2022/03/19 03:26:52;;;;;;;20.17;10.90;;;;;;;5.78;54.26;102809.31;5077092;28;20479;-73
2022/03/19 03:29:20;;;;;;;18.80;10.85;;;;;;;5.72;54.35;102815.53;5094353;28;20052;-73
2022/03/19 03:31:49;;;;;;;26.48;11.02;;;;;;;5.80;54.40;102814.56;5076866;28;20047;-73
2022/03/19 03:34:17;;;;;;;19.70;11.88;;;;;;;5.70;54.65;102805.88;5094260;28;20051;-72
2022/03/19 03:36:45;;;;;;;20.75;12.38;;;;;;;5.68;54.53;102808.81;5093887;28;20048;-72
2022/03/19 03:39:13;;;;;;;21.75;11.02;;;;;;;5.60;54.86;102807.06;5094874;28;20047;-73
2022/03/19 03:41:41;;;;;;;18.23;10.60;;;;;;;5.49;55.47;102804.84;5107634;28;20046;-72
2022/03/19 03:44:09;;;;;;;19.20;11.05;;;;;;;5.41;56.06;102807.63;5093870;28;20036;-73
2022/03/19 03:46:37;;;;;;;21.67;12.18;;;;;;;5.44;56.58;102807.28;5094640;28;20044;-72
2022/03/19 03:49:05;;;;;;;18.73;11.38;;;;;;;5.38;56.26;102804.28;5093915;28;20063;-71
2022/03/19 03:51:33;;;;;;;19.63;11.65;;;;;;;5.39;56.59;102813.28;5094738;28;20040;-71
2022/03/19 03:54:01;;;;;;;23.63;11.52;;;;;;;5.37;56.62;102807.19;5093538;28;20044;-71
2022/03/19 03:56:29;;;;;;;20.35;10.68;;;;;;;5.59;55.79;102805.38;5094575;28;20066;-71
2022/03/19 03:58:57;;;;;;;19.15;10.68;;;;;;;5.53;55.71;102798.00;5093486;28;20371;-71
2022/03/19 04:01:25;;;;;;;20.98;11.48;;;;;;;5.44;56.13;102802.69;5093759;28;20041;-73
2022/03/19 04:03:53;;;;;;;17.17;10.40;;;;;;;5.51;56.16;102795.47;5093326;28;20048;-71
2022/03/19 04:06:21;;;;;;;19.30;10.70;;;;;;;5.54;55.77;102796.97;5094321;28;20044;-71
2022/03/19 04:08:49;;;;;;;22.67;11.38;;;;;;;5.62;55.97;102806.88;5094301;28;20052;-71
2022/03/19 04:11:17;;;;;;;21.73;11.70;;;;;;;5.55;56.14;102795.91;5093177;28;20501;-72
2022/03/19 04:13:45;;;;;;;19.75;10.80;;;;;;;5.51;56.33;102797.31;5094295;28;20513;-71
2022/03/19 04:16:13;;;;;;;19.75;11.57;;;;;;;5.48;56.04;102790.41;5093199;28;20063;-71
2022/03/19 04:18:41;;;;;;;18.40;11.00;;;;;;;5.45;56.03;102798.94;5093430;28;20048;-72
2022/03/19 04:21:09;;;;;;;20.23;11.75;;;;;;;5.40;56.69;102790.53;5093103;28;20513;-72
2022/03/19 04:23:37;;;;;;;23.77;11.85;;;;;;;5.34;56.66;102797.53;5093943;28;20047;-73
2022/03/19 04:26:05;;;;;;;21.98;11.73;;;;;;;5.27;56.76;102801.22;5093513;28;20067;-72
2022/03/19 04:28:33;;;;;;;19.23;11.30;;;;;;;5.41;57.09;102794.06;5093204;28;20495;-72
2022/03/19 04:31:00;;;;;;;18.83;11.35;;;;;;;5.35;57.17;102799.25;5093236;28;20051;-72
2022/03/19 04:33:28;;;;;;;20.13;10.73;;;;;;;5.37;57.57;102801.75;5075072;28;20079;-72
2022/03/19 04:38:44;;;;;;;19.88;11.20;;;;;;;5.56;57.20;102810.31;5093525;28;20047;-73
2022/03/19 04:41:14;;;;;;;18.30;10.85;;;;;;;5.30;57.41;102806.25;5102176;28;20051;-72
2022/03/19 04:43:42;;;;;;;19.02;10.68;;;;;;;5.17;58.14;102809.63;5095790;28;20390;-73
2022/03/19 04:46:09;;;;;;;18.45;11.05;;;;;;;4.86;59.69;102805.25;5092423;28;20059;-72
2022/03/19 04:48:37;;;;;;;19.15;10.80;;;;;;;4.73;60.12;102804.03;5092829;28;20047;-73
2022/03/19 04:51:06;;;;;;;20.38;11.70;;;;;;;4.53;60.90;102807.28;5093463;28;20399;-72
2022/03/19 04:53:35;;;;;;;25.08;13.60;;;;;;;4.46;61.31;102810.91;5093597;28;20391;-72
2022/03/19 04:56:03;;;;;;;18.98;11.80;;;;;;;4.34;61.74;102805.09;5092406;28;20500;-72
2022/03/19 04:58:32;;;;;;;23.60;12.10;;;;;;;4.23;62.67;102811.75;5092551;28;20056;-72
2022/03/19 05:01:01;;;;;;;19.83;10.80;;;;;;;4.14;62.73;102810.97;5092754;28;20052;-72
2022/03/19 05:03:29;;;;;;;19.00;11.23;;;;;;;4.03;63.47;102807.69;5093260;28;20044;-72
2022/03/19 05:05:57;;;;;;;18.25;11.00;;;;;;;3.92;64.28;102813.53;5075221;28;20372;-72
2022/03/19 05:08:25;;;;;;;21.77;12.80;;;;;;;3.84;64.37;102814.44;5093129;28;20048;-72
2022/03/19 05:13:44;;;;;;;19.63;11.00;;;;;;;3.67;65.78;102818.25;5080561;28;20399;-72
2022/03/19 05:16:12;;;;;;;21.13;11.48;;;;;;;3.63;65.68;102815.06;5092049;28;20491;-72
2022/03/19 05:18:41;;;;;;;19.73;11.15;;;;;;;3.51;66.13;102820.03;5092210;28;20044;-73
2022/03/19 05:21:12;;;;;;;19.30;11.45;;;;;;;3.47;66.28;102813.28;5092922;28;20043;-72
2022/03/19 05:23:42;;;;;;;22.17;12.15;;;;;;;3.55;66.50;102815.94;5092964;28;20048;-72
2022/03/19 05:26:10;;;;;;;19.00;11.07;;;;;;;3.59;66.14;102819.13;5091979;28;20513;-72
2022/03/19 05:28:38;;;;;;;23.02;12.25;;;;;;;3.64;65.87;102827.56;5091749;28;20052;-72
2022/03/19 05:31:27;;;;;;;21.05;11.95;;;;;;;3.57;65.83;102823.91;5092603;28;20083;-72
2022/03/19 05:36:43;;;;;;;19.35;11.50;;;;;;;3.55;66.84;102813.25;5091615;28;20047;-71
2022/03/19 05:39:11;;;;;;;25.92;12.18;;;;;;;3.53;67.28;102822.56;5091618;28;20504;-71
2022/03/19 05:41:39;;;;;;;20.67;12.68;;;;;;;3.49;67.74;102817.47;5103400;28;20050;-72
2022/03/19 05:44:07;;;;;;;24.65;13.45;;;;;;;3.72;67.61;102821.28;5079410;28;20036;-71
2022/03/19 05:46:35;;;;;;;20.92;11.32;;;;;;;3.89;67.05;102824.72;5084903;28;20044;-72
2022/03/19 05:49:03;;;;;;;25.08;12.65;;;;;;;4.09;66.48;102813.38;5077356;28;20052;-71
2022/03/19 05:51:31;;;;;;;25.13;12.27;;;;;;;4.15;67.04;102818.09;5076956;28;20045;-71
2022/03/19 05:53:59;;;;;;;24.45;13.38;;;;;;;3.98;67.52;102815.53;5091791;28;20036;-71
2022/03/19 05:56:27;;;;;;;23.77;12.25;;;;;;;4.01;67.23;102811.63;5085401;28;20048;-71
2022/03/19 05:58:55;;;;;;;22.60;13.18;;;;;;;4.01;67.70;102800.78;5081441;28;20056;-71
2022/03/19 06:01:26;;;;;;;22.23;12.48;;;;;;;4.03;67.20;102810.41;5083719;28;20065;-71
2022/03/19 06:03:59;;;;;;;25.92;12.77;;;;;;;4.29;66.51;102809.19;5087023;28;20052;-71
2022/03/19 06:06:28;;;;;;;23.58;13.38;;;;;;;4.46;66.38;102806.34;5083717;28;20067;-71
2022/03/19 06:08:57;;;;;;;22.20;12.57;;;;;;;4.54;65.87;102808.94;5083652;28;20407;-71
2022/03/19 06:11:26;;;;;;;21.40;12.23;;;;;;;4.91;65.04;102805.53;5082430;28;20514;-71
2022/03/19 06:13:55;;;;;;;24.17;13.55;;;;;;;5.17;64.08;102807.78;5064457;28;20420;-71
2022/03/19 06:16:23;;;;;;;25.88;13.70;;;;;;;5.27;63.72;102810.19;5086707;28;20048;-72
2022/03/19 06:18:51;;;;;;;23.45;13.52;;;;;;;5.32;63.61;102804.22;5087653;28;20403;-71
2022/03/19 06:21:20;;;;;;;22.25;13.43;;;;;;;5.28;63.05;102813.75;5077668;28;20043;-72
2022/03/19 06:23:49;;;;;;;22.52;13.15;;;;;;;5.37;63.15;102807.19;5089434;28;20067;-71
2022/03/19 06:26:19;;;;;;;23.15;13.82;;;;;;;5.34;62.84;102797.53;5071928;28;20394;-72
2022/03/19 06:28:48;;;;;;;26.05;13.13;;;;;;;5.56;62.67;102789.44;5079677;28;20044;-71
2022/03/19 06:31:16;;;;;;;22.73;13.48;;;;;;;5.80;63.15;102801.00;5085805;28;20044;-71
2022/03/19 06:33:44;;;;;;;23.33;12.52;;;;;;;5.60;62.69;102790.75;5086782;28;20036;-74
2022/03/19 06:39:00;;;;;;;27.65;13.45;;;;;;;6.00;61.81;102784.03;5076917;28;20037;-73
2022/03/19 06:41:28;;;;;;;22.73;12.80;;;;;;;6.46;60.84;102788.25;5086480;28;20048;-73
2022/03/19 06:43:56;;;;;;;39.10;14.25;;;;;;;6.69;59.66;102787.97;5084868;28;20050;-73
2022/03/19 06:46:24;;;;;;;26.33;14.02;;;;;;;6.41;61.07;102791.53;5084884;28;20411;-73
2022/03/19 06:48:52;;;;;;;33.20;13.48;;;;;;;6.74;59.80;102790.09;5083074;28;20051;-72
2022/03/19 06:51:20;;;;;;;37.90;14.48;;;;;;;7.01;59.03;102783.97;5088632;28;20040;-72
2022/03/19 06:53:49;;;;;;;26.27;13.95;;;;;;;7.45;57.60;102769.09;5080965;28;20057;-73
2022/03/19 06:56:18;;;;;;;27.17;14.27;;;;;;;7.69;56.86;102771.44;5090218;28;20049;-72
2022/03/19 06:58:46;;;;;;;24.27;13.77;;;;;;;7.56;56.64;102764.06;5102732;28;20052;-72
2022/03/19 07:01:17;;;;;;;22.83;13.40;;;;;;;7.63;56.73;102759.50;5094622;28;20408;-72
2022/03/19 07:03:46;;;;;;;24.50;13.85;;;;;;;7.76;56.86;102764.09;5088741;28;20470;-72
2022/03/19 07:06:17;;;;;;;24.98;13.55;;;;;;;8.03;56.50;102764.16;5094374;28;20418;-71
2022/03/19 07:09:05;;;;;;;22.13;13.38;;;;;;;8.02;55.17;102757.84;5094419;28;20067;-72
2022/03/19 07:11:35;;;;;;;28.90;14.35;;;;;;;8.09;54.74;102757.00;5091672;28;20056;-72
2022/03/19 07:14:05;;;;;;;21.55;12.85;;;;;;;8.47;53.92;102753.66;5091451;28;20044;-72
2022/03/19 07:16:33;;;;;;;26.77;13.02;;;;;;;8.95;53.86;102754.41;5092600;28;20040;-80
2022/03/19 07:19:01;;;;;;;23.88;13.63;;;;;;;9.20;52.33;102757.28;5095185;28;20055;-79
2022/03/19 07:21:29;;;;;;;24.90;13.68;;;;;;;9.40;52.02;102759.06;5095053;28;20048;-79
2022/03/19 07:23:57;;;;;;;25.15;13.32;;;;;;;9.52;51.48;102754.56;5077200;28;20056;-79
2022/03/19 07:26:26;;;;;;;28.60;13.85;;;;;;;9.44;51.51;102762.19;5106734;28;20051;-79
2022/03/19 07:28:54;;;;;;;25.20;13.77;;;;;;;9.58;50.95;102755.56;5079735;28;20044;-79
2022/03/19 07:31:24;;;;;;;31.15;15.00;;;;;;;9.79;50.94;102759.03;5094769;28;20059;-79
2022/03/19 07:33:52;;;;;;;24.42;14.65;;;;;;;9.56;51.03;102752.22;5100270;28;20039;-79
2022/03/19 07:36:20;;;;;;;28.30;13.52;;;;;;;9.58;50.81;102754.75;5087677;28;20036;-80
2022/03/19 07:38:49;;;;;;;26.40;14.20;;;;;;;9.67;51.13;102746.06;5092397;28;20482;-79
2022/03/19 07:44:04;;;;;;;20.83;12.98;;;;;;;9.86;51.26;102739.81;5083206;28;20047;-80
2022/03/19 07:46:34;;;;;;;26.50;13.30;;;;;;;9.97;49.51;102733.63;5083267;28;20051;-77
2022/03/19 07:49:03;;;;;;;25.90;13.50;;;;;;;9.92;48.98;102739.78;5091482;28;20040;-77
2022/03/19 07:51:31;;;;;;;22.48;13.45;;;;;;;9.85;49.92;102739.00;5086395;28;20052;-77
2022/03/19 07:54:00;;;;;;;20.33;12.50;;;;;;;9.98;49.70;102731.75;5093611;28;20052;-77
2022/03/19 07:56:28;;;;;;;23.58;13.70;;;;;;;9.89;48.59;102734.78;5080011;28;20041;-78
2022/03/19 07:58:57;;;;;;;22.98;13.90;;;;;;;10.02;49.07;102731.06;5081511;28;20047;-79
2022/03/19 08:01:25;;;;;;;24.48;12.82;;;;;;;10.18;48.58;102734.31;5081722;28;20048;-78
2022/03/19 08:03:57;;;;;;;23.38;13.15;;;;;;;10.29;48.28;102716.31;5080230;28;20052;-79
2022/03/19 08:06:25;;;;;;;22.08;13.18;;;;;;;10.34;47.21;102721.97;5092042;28;20040;-79
2022/03/19 08:08:54;;;;;;;21.00;12.27;;;;;;;10.45;46.29;102726.72;5084770;28;20051;-84
2022/03/19 08:11:22;;;;;;;20.70;12.88;;;;;;;10.43;45.84;102719.81;5085855;28;20063;-87
2022/03/19 08:13:50;;;;;;;18.92;12.45;;;;;;;10.23;46.92;102720.81;5092362;28;20394;-84
2022/03/19 08:16:18;;;;;;;25.08;13.35;;;;;;;10.38;46.58;102720.47;5079009;28;20040;-86
2022/03/19 08:18:46;;;;;;;25.70;14.05;;;;;;;10.55;45.97;102714.44;5063641;28;20036;-81
2022/03/19 08:21:14;;;;;;;18.70;12.07;;;;;;;10.69;43.53;102718.69;5096501;28;20040;-81
2022/03/19 08:23:42;;;;;;;20.05;12.63;;;;;;;10.65;44.26;102714.72;5091546;28;20040;-82
2022/03/19 08:26:10;;;;;;;23.58;12.73;;;;;;;10.78;43.83;102705.53;5084673;28;20487;-84
2022/03/19 08:28:38;;;;;;;20.33;12.43;;;;;;;10.98;43.52;102708.03;5085662;28;20040;-84
2022/03/19 08:31:06;;;;;;;21.13;12.48;;;;;;;11.15;42.80;102697.25;5087222;28;20040;-84
2022/03/19 08:33:34;;;;;;;22.10;12.15;;;;;;;11.34;42.27;102690.91;5080213;28;20048;-84
2022/03/19 08:36:02;;;;;;;21.27;12.38;;;;;;;11.41;41.39;102691.63;5088997;28;20047;-73
2022/03/19 08:41:17;;;;;;;22.20;13.43;;;;;;;11.88;40.64;102690.06;5092388;28;20052;-74
2022/03/19 08:43:44;;;;;;;21.27;13.38;;;;;;;12.08;40.74;102692.50;5082636;28;20048;-75
2022/03/19 08:46:12;;;;;;;20.77;13.05;;;;;;;12.23;41.51;102692.03;5092234;28;20813;-75
2022/03/19 08:48:40;;;;;;;16.00;11.40;;;;;;;11.97;39.55;102683.13;5092343;28;20052;-75
2022/03/19 08:54:18;;;;;;;23.75;12.60;;;;;;;11.95;40.12;102675.16;4990030;28;20053;-75
2022/03/19 08:56:48;;;;;;;19.67;11.05;;;;;;;12.00;39.63;102679.94;5052121;28;20063;-75
2022/03/19 08:59:17;;;;;;;15.15;10.52;;;;;;;12.23;37.66;102675.53;5091947;28;20279;-75
2022/03/19 09:01:48;;;;;;;16.63;10.38;;;;;;;11.81;37.08;102671.81;5075230;28;20402;-76
2022/03/19 09:04:17;;;;;;;20.00;11.55;;;;;;;12.03;37.51;102667.63;5092531;28;20055;-76
2022/03/19 09:06:46;;;;;;;16.92;11.52;;;;;;;12.16;37.39;102675.66;5092772;28;20040;-76
2022/03/19 09:09:14;;;;;;;17.80;11.23;;;;;;;12.34;36.74;102669.22;5091476;28;20044;-75
2022/03/19 09:11:43;;;;;;;24.63;10.07;;;;;;;11.95;37.14;102664.19;5092581;28;20056;-75
2022/03/19 09:14:11;;;;;;;18.42;11.23;;;;;;;12.02;37.67;102658.56;5092923;28;20063;-76
2022/03/19 09:16:40;;;;;;;17.05;10.98;;;;;;;12.25;36.52;102658.81;5094711;28;20056;-76
2022/03/19 09:19:08;;;;;;;16.83;10.07;;;;;;;12.36;36.52;102645.09;5092586;28;20063;-75
2022/03/19 09:21:37;;;;;;;18.75;11.38;;;;;;;12.19;36.67;102650.50;5091291;28;20534;-75
2022/03/19 09:24:06;;;;;;;17.02;10.93;;;;;;;12.29;36.92;102647.13;5091698;28;20052;-76
2022/03/19 09:26:34;;;;;;;18.65;10.70;;;;;;;12.29;36.53;102636.16;5085321;28;20066;-76
2022/03/19 09:29:02;;;;;;;17.70;10.90;;;;;;;12.63;37.13;102640.97;5078213;28;20059;-76
2022/03/19 09:31:30;;;;;;;17.42;11.18;;;;;;;12.87;35.91;102641.72;5075047;28;20051;-76
2022/03/19 09:33:58;;;;;;;17.48;10.98;;;;;;;12.96;36.61;102638.59;5074510;28;20041;-75
2022/03/19 09:36:26;;;;;;;16.55;10.05;;;;;;;12.92;35.52;102642.91;5086604;28;20513;-75
2022/03/19 09:38:54;;;;;;;22.00;11.48;;;;;;;12.50;35.34;102631.09;5092124;28;20395;-76
2022/03/19 09:41:22;;;;;;;16.95;10.32;;;;;;;12.32;36.22;102638.41;5091440;28;20040;-74
2022/03/19 09:43:50;;;;;;;17.73;10.45;;;;;;;12.36;35.83;102628.63;5080278;28;20048;-74
2022/03/19 09:46:18;;;;;;;15.02;9.73;;;;;;;12.73;35.79;102637.59;5054548;28;20057;-75
2022/03/19 09:48:46;;;;;;;18.63;10.05;;;;;;;12.88;34.93;102626.91;5091313;28;20047;-75
2022/03/19 09:51:16;;;;;;;22.65;11.38;;;;;;;12.58;35.37;102627.97;5086483;28;20047;-74
2022/03/19 09:53:46;;;;;;;17.00;10.85;;;;;;;12.53;35.38;102625.13;5089639;28;20390;-74
2022/03/19 09:56:31;;;;;;;15.25;9.63;;;;;;;12.76;34.94;102626.13;5084693;28;20056;-74
2022/03/19 09:59:00;;;;;;;15.15;9.82;;;;;;;12.93;35.64;102622.56;5079083;28;20071;-75
2022/03/19 10:01:31;;;;;;;17.25;10.57;;;;;;;12.92;34.40;102610.78;5090336;28;20047;-75
2022/03/19 10:04:02;;;;;;;18.20;10.27;;;;;;;13.36;34.41;102623.94;5092033;28;20063;-75
2022/03/19 10:09:18;;;;;;;16.95;10.75;;;;;;;13.21;33.54;102607.16;5088977;28;20047;-75
2022/03/19 10:11:51;;;;;;;13.45;9.10;;;;;;;13.34;35.48;102606.81;5077395;28;20406;-75
2022/03/19 10:14:25;;;;;;;17.60;10.23;;;;;;;13.25;33.24;102613.81;5090602;28;20503;-74
2022/03/19 10:16:55;;;;;;;14.77;9.67;;;;;;;12.92;33.47;102607.19;5085310;28;20040;-75
2022/03/19 10:19:23;;;;;;;13.85;8.57;;;;;;;12.85;33.08;102607.34;5090895;28;20056;-75
2022/03/19 10:21:51;;;;;;;14.75;9.75;;;;;;;12.68;33.68;102599.03;5090982;28;20036;-75
2022/03/19 10:24:30;;;;;;;16.58;9.90;;;;;;;12.97;32.88;102599.03;5091281;28;20050;-75
2022/03/19 10:26:58;;;;;;;16.05;10.35;;;;;;;13.00;32.89;102593.88;5091316;28;20040;-75
2022/03/19 10:29:33;;;;;;;16.35;9.82;;;;;;;12.83;32.61;102593.84;5091893;28;20608;-75
2022/03/19 10:32:04;;;;;;;18.45;10.93;;;;;;;13.07;32.93;102588.22;5091658;28;20056;-75
2022/03/19 10:34:34;;;;;;;17.83;10.95;;;;;;;13.56;33.34;102586.88;5073843;28;20048;-75
2022/03/19 10:37:02;;;;;;;16.83;10.15;;;;;;;13.49;31.74;102586.22;5090990;28;20055;-74
2022/03/19 10:39:31;;;;;;;14.80;9.07;;;;;;;13.52;31.69;102570.03;5090991;28;20048;-74
2022/03/19 10:42:14;;;;;;;19.20;10.38;;;;;;;13.76;32.56;102567.09;5091585;28;20055;-74
2022/03/19 10:44:42;;;;;;;13.95;9.70;;;;;;;14.14;31.58;102572.00;5091855;28;20056;-74
2022/03/19 10:47:10;;;;;;;18.75;9.90;;;;;;;14.24;30.74;102578.44;5091190;28;20052;-74
2022/03/19 10:49:42;;;;;;;16.77;9.05;;;;;;;14.50;30.21;102567.75;5090689;28;20055;-74
2022/03/19 10:52:16;;;;;;;16.65;9.93;;;;;;;14.40;30.13;102556.63;5077259;28;20438;-75
2022/03/19 10:54:45;;;;;;;16.58;10.45;;;;;;;14.27;31.05;102559.78;5079856;28;20052;-73
2022/03/19 10:57:32;;;;;;;17.25;10.15;;;;;;;13.68;31.12;102554.59;5095201;28;20032;-73
2022/03/19 11:00:16;;;;;;;17.50;10.07;;;;;;;14.29;31.23;102547.41;5070337;28;20040;-73
2022/03/19 11:02:47;;;;;;;17.67;10.30;;;;;;;14.51;31.21;102554.81;5090073;28;20048;-75
2022/03/19 11:05:19;;;;;;;14.55;9.70;;;;;;;14.24;30.98;102548.16;5088724;28;20048;-76
2022/03/19 11:07:48;;;;;;;16.63;9.15;;;;;;;14.75;30.84;102541.59;5088647;28;20514;-75
2022/03/19 11:10:19;;;;;;;16.48;10.05;;;;;;;14.50;29.81;102540.22;5089003;28;20048;-76
2022/03/19 11:12:52;;;;;;;15.13;9.80;;;;;;;14.55;30.24;102535.81;5070098;28;20062;-76
2022/03/19 11:15:20;;;;;;;17.02;11.15;;;;;;;14.41;30.40;102540.94;5069123;28;20051;-75
2022/03/19 11:17:50;;;;;;;15.32;10.00;;;;;;;14.41;31.09;102532.69;5087948;28;20437;-75
2022/03/19 11:20:18;;;;;;;17.10;9.98;;;;;;;14.68;30.22;102516.16;5086728;28;20099;-75
2022/03/19 11:22:52;;;;;;;12.50;8.38;;;;;;;14.70;28.75;102513.97;5088962;28;20410;-75
2022/03/19 11:25:26;;;;;;;14.35;9.18;;;;;;;14.62;29.11;102525.47;5086942;28;20051;-76
2022/03/19 11:28:00;;;;;;;15.30;9.30;;;;;;;14.51;29.82;102513.47;5088005;28;20501;-74
2022/03/19 11:30:32;;;;;;;17.48;10.20;;;;;;;14.61;30.94;102508.09;5087937;28;20055;-83
2022/03/19 11:33:19;;;;;;;16.52;9.60;;;;;;;14.67;29.67;102500.72;5052128;28;20060;-74
2022/03/19 11:36:03;;;;;;;16.15;10.02;;;;;;;14.50;29.02;102512.66;5089090;28;20054;-74
2022/03/19 11:38:33;;;;;;;20.25;10.95;;;;;;;14.81;30.35;102490.09;5089405;28;20047;-74
2022/03/19 11:41:17;;;;;;;15.27;9.65;;;;;;;15.04;30.14;102494.44;5091853;28;20055;-74
2022/03/19 11:43:45;;;;;;;14.75;9.32;;;;;;;15.13;29.71;102482.91;5090917;28;20036;-74
2022/03/19 11:46:14;;;;;;;14.57;9.65;;;;;;;14.87;28.60;102482.72;5090282;28;20063;-73
2022/03/19 11:48:49;;;;;;;15.75;9.80;;;;;;;14.88;28.13;102478.88;5092536;28;20474;-73
2022/03/19 11:51:43;;;;;;;15.88;9.35;;;;;;;15.02;27.77;102469.06;5092438;28;20048;-74